sensor_id;sensor_type;location;lat;lon;timestamp;pressure;altitude;pressure_sealevel;temperature;humidity
54808;BME280;40708;50.364;7.550;2023-06-10T00:00:39;100170.44;;;21.82;100.00
54808;BME280;40708;50.364;7.550;2023-06-10T00:03:06;100170.63;;;21.79;100.00
54808;BME280;40708;50.364;7.550;2023-06-10T00:05:32;100181.72;;;21.73;100.00
54808;BME280;40708;50.364;7.550;2023-06-10T00:07:58;100176.63;;;21.67;100.00
54808;BME280;40708;50.364;7.550;2023-06-10T00:10:23;100178.75;;;21.61;100.00
54808;BME280;40708;50.364;7.550;2023-06-10T00:12:49;100185.25;;;21.57;100.00
54808;BME280;40708;50.364;7.550;2023-06-10T00:15:15;100179.13;;;21.53;100.00
54808;BME280;40708;50.364;7.550;2023-06-10T00:17:40;100182.28;;;21.44;100.00
54808;BME280;40708;50.364;7.550;2023-06-10T00:20:09;100179.72;;;21.41;100.00
54808;BME280;40708;50.364;7.550;2023-06-10T00:22:37;100189.03;;;21.34;100.00
54808;BME280;40708;50.364;7.550;2023-06-10T00:25:05;100192.19;;;21.25;100.00
54808;BME280;40708;50.364;7.550;2023-06-10T00:27:31;100194.16;;;21.21;100.00
54808;BME280;40708;50.364;7.550;2023-06-10T00:30:04;100202.38;;;21.18;100.00
54808;BME280;40708;50.364;7.550;2023-06-10T00:32:32;100203.78;;;21.08;100.00
54808;BME280;40708;50.364;7.550;2023-06-10T00:34:57;100209.41;;;21.02;100.00
54808;BME280;40708;50.364;7.550;2023-06-10T00:37:23;100212.66;;;20.90;100.00
54808;BME280;40708;50.364;7.550;2023-06-10T00:39:48;100216.59;;;20.83;100.00
54808;BME280;40708;50.364;7.550;2023-06-10T00:42:13;100226.75;;;20.76;100.00
54808;BME280;40708;50.364;7.550;2023-06-10T00:44:38;100228.13;;;20.66;100.00
54808;BME280;40708;50.364;7.550;2023-06-10T00:47:05;100226.31;;;20.67;100.00
54808;BME280;40708;50.364;7.550;2023-06-10T00:49:31;100234.88;;;20.56;100.00
54808;BME280;40708;50.364;7.550;2023-06-10T00:51:56;100244.47;;;20.42;100.00
54808;BME280;40708;50.364;7.550;2023-06-10T00:54:22;100249.13;;;20.38;100.00
54808;BME280;40708;50.364;7.550;2023-06-10T00:56:47;100255.78;;;20.30;100.00
54808;BME280;40708;50.364;7.550;2023-06-10T00:59:13;100267.00;;;20.19;100.00
54808;BME280;40708;50.364;7.550;2023-06-10T01:01:40;100265.72;;;20.06;100.00
54808;BME280;40708;50.364;7.550;2023-06-10T01:04:06;100283.97;;;19.99;100.00
54808;BME280;40708;50.364;7.550;2023-06-10T01:06:55;100289.47;;;19.96;100.00
54808;BME280;40708;50.364;7.550;2023-06-10T01:09:54;100284.28;;;19.92;100.00
54808;BME280;40708;50.364;7.550;2023-06-10T01:12:34;100324.56;;;19.72;100.00
54808;BME280;40708;50.364;7.550;2023-06-10T01:15:04;100345.22;;;19.48;100.00
54808;BME280;40708;50.364;7.550;2023-06-10T01:17:29;100344.50;;;19.43;100.00
54808;BME280;40708;50.364;7.550;2023-06-10T01:19:58;100335.47;;;19.44;100.00
54808;BME280;40708;50.364;7.550;2023-06-10T01:22:27;100339.72;;;19.51;100.00
54808;BME280;40708;50.364;7.550;2023-06-10T01:25:02;100329.81;;;19.51;100.00
54808;BME280;40708;50.364;7.550;2023-06-10T01:27:30;100340.97;;;19.41;100.00
54808;BME280;40708;50.364;7.550;2023-06-10T01:30:08;100343.09;;;19.31;100.00
54808;BME280;40708;50.364;7.550;2023-06-10T01:32:48;100370.59;;;19.15;100.00
54808;BME280;40708;50.364;7.550;2023-06-10T01:35:15;100386.50;;;18.96;100.00
54808;BME280;40708;50.364;7.550;2023-06-10T01:37:45;100395.78;;;18.87;100.00
54808;BME280;40708;50.364;7.550;2023-06-10T01:40:11;100402.13;;;18.85;100.00
54808;BME280;40708;50.364;7.550;2023-06-10T01:42:37;100392.16;;;18.88;100.00
54808;BME280;40708;50.364;7.550;2023-06-10T01:45:03;100376.75;;;18.93;100.00
54808;BME280;40708;50.364;7.550;2023-06-10T01:47:29;100370.28;;;18.99;100.00
54808;BME280;40708;50.364;7.550;2023-06-10T01:49:54;100374.00;;;18.95;100.00
54808;BME280;40708;50.364;7.550;2023-06-10T01:52:19;100384.19;;;18.85;100.00
54808;BME280;40708;50.364;7.550;2023-06-10T01:54:45;100407.66;;;18.80;100.00
54808;BME280;40708;50.364;7.550;2023-06-10T01:57:10;100389.84;;;18.78;100.00
54808;BME280;40708;50.364;7.550;2023-06-10T01:59:35;100393.28;;;18.81;100.00
54808;BME280;40708;50.364;7.550;2023-06-10T02:02:03;100361.56;;;19.17;100.00
54808;BME280;40708;50.364;7.550;2023-06-10T02:04:28;100339.59;;;19.29;100.00
54808;BME280;40708;50.364;7.550;2023-06-10T02:06:53;100359.41;;;19.27;100.00
54808;BME280;40708;50.364;7.550;2023-06-10T02:09:21;100352.44;;;19.21;100.00
54808;BME280;40708;50.364;7.550;2023-06-10T02:11:48;100348.78;;;19.24;100.00
54808;BME280;40708;50.364;7.550;2023-06-10T02:14:13;100346.28;;;19.18;100.00
54808;BME280;40708;50.364;7.550;2023-06-10T02:16:38;100350.09;;;19.12;100.00
54808;BME280;40708;50.364;7.550;2023-06-10T02:19:04;100348.66;;;19.27;100.00
54808;BME280;40708;50.364;7.550;2023-06-10T02:21:31;100340.41;;;19.31;100.00
54808;BME280;40708;50.364;7.550;2023-06-10T02:23:57;100341.31;;;19.32;100.00
54808;BME280;40708;50.364;7.550;2023-06-10T02:26:22;100339.34;;;19.35;100.00
54808;BME280;40708;50.364;7.550;2023-06-10T02:28:48;100337.84;;;19.28;100.00
54808;BME280;40708;50.364;7.550;2023-06-10T02:31:13;100325.06;;;19.35;100.00
54808;BME280;40708;50.364;7.550;2023-06-10T02:33:38;100342.28;;;19.29;100.00
54808;BME280;40708;50.364;7.550;2023-06-10T02:36:05;100330.34;;;19.36;100.00
54808;BME280;40708;50.364;7.550;2023-06-10T02:38:31;100313.53;;;19.54;100.00
54808;BME280;40708;50.364;7.550;2023-06-10T02:40:56;100318.31;;;19.48;100.00
54808;BME280;40708;50.364;7.550;2023-06-10T02:43:21;100314.38;;;19.56;100.00
54808;BME280;40708;50.364;7.550;2023-06-10T02:45:46;100311.63;;;19.58;100.00
54808;BME280;40708;50.364;7.550;2023-06-10T02:48:12;100305.25;;;19.60;100.00
54808;BME280;40708;50.364;7.550;2023-06-10T02:50:37;100290.56;;;19.69;100.00
54808;BME280;40708;50.364;7.550;2023-06-10T02:53:05;100285.22;;;19.68;100.00
54808;BME280;40708;50.364;7.550;2023-06-10T02:55:30;100280.56;;;19.73;100.00
54808;BME280;40708;50.364;7.550;2023-06-10T02:57:55;100289.66;;;19.69;100.00
54808;BME280;40708;50.364;7.550;2023-06-10T03:00:21;100287.09;;;19.66;100.00
54808;BME280;40708;50.364;7.550;2023-06-10T03:02:46;100299.06;;;19.58;100.00
54808;BME280;40708;50.364;7.550;2023-06-10T03:05:12;100300.38;;;19.47;100.00
54808;BME280;40708;50.364;7.550;2023-06-10T03:07:38;100304.00;;;19.46;100.00
54808;BME280;40708;50.364;7.550;2023-06-10T03:10:04;100304.19;;;19.41;100.00
54808;BME280;40708;50.364;7.550;2023-06-10T03:12:29;100306.25;;;19.33;100.00
54808;BME280;40708;50.364;7.550;2023-06-10T03:14:54;100307.19;;;19.32;100.00
54808;BME280;40708;50.364;7.550;2023-06-10T03:17:20;100315.50;;;19.26;100.00
54808;BME280;40708;50.364;7.550;2023-06-10T03:19:45;100316.59;;;19.21;100.00
54808;BME280;40708;50.364;7.550;2023-06-10T03:22:14;100300.09;;;19.30;100.00
54808;BME280;40708;50.364;7.550;2023-06-10T03:24:40;100299.63;;;19.43;100.00
54808;BME280;40708;50.364;7.550;2023-06-10T03:27:10;100299.00;;;19.35;100.00
54808;BME280;40708;50.364;7.550;2023-06-10T03:29:37;100305.19;;;19.39;100.00
54808;BME280;40708;50.364;7.550;2023-06-10T03:32:02;100308.84;;;19.36;100.00
54808;BME280;40708;50.364;7.550;2023-06-10T03:34:28;100298.06;;;19.36;100.00
54808;BME280;40708;50.364;7.550;2023-06-10T03:36:53;100317.50;;;19.21;100.00
54808;BME280;40708;50.364;7.550;2023-06-10T03:39:18;100324.78;;;19.18;100.00
54808;BME280;40708;50.364;7.550;2023-06-10T03:41:44;100338.06;;;19.22;100.00
54808;BME280;40708;50.364;7.550;2023-06-10T03:44:09;100317.00;;;19.33;100.00
54808;BME280;40708;50.364;7.550;2023-06-10T03:46:34;100295.56;;;19.56;100.00
54808;BME280;40708;50.364;7.550;2023-06-10T03:48:59;100301.66;;;19.60;100.00
54808;BME280;40708;50.364;7.550;2023-06-10T03:51:29;100301.25;;;19.71;100.00
54808;BME280;40708;50.364;7.550;2023-06-10T03:53:55;100292.50;;;19.87;100.00
54808;BME280;40708;50.364;7.550;2023-06-10T03:56:20;100302.22;;;19.91;100.00
54808;BME280;40708;50.364;7.550;2023-06-10T03:58:45;100290.22;;;20.00;100.00
54808;BME280;40708;50.364;7.550;2023-06-10T04:01:10;100286.81;;;20.16;100.00
54808;BME280;40708;50.364;7.550;2023-06-10T04:03:38;100277.94;;;20.36;100.00
54808;BME280;40708;50.364;7.550;2023-06-10T04:06:04;100264.56;;;20.55;100.00
54808;BME280;40708;50.364;7.550;2023-06-10T04:08:30;100260.41;;;20.68;100.00
54808;BME280;40708;50.364;7.550;2023-06-10T04:10:56;100253.97;;;20.91;100.00
54808;BME280;40708;50.364;7.550;2023-06-10T04:13:22;100260.16;;;21.14;100.00
54808;BME280;40708;50.364;7.550;2023-06-10T04:15:47;100247.47;;;21.35;100.00
54808;BME280;40708;50.364;7.550;2023-06-10T04:18:13;100245.38;;;21.60;100.00
54808;BME280;40708;50.364;7.550;2023-06-10T04:20:38;100239.81;;;21.82;100.00
54808;BME280;40708;50.364;7.550;2023-06-10T04:23:03;100231.91;;;22.15;100.00
54808;BME280;40708;50.364;7.550;2023-06-10T04:25:29;100220.91;;;22.71;100.00
54808;BME280;40708;50.364;7.550;2023-06-10T04:27:54;100227.72;;;22.95;100.00
54808;BME280;40708;50.364;7.550;2023-06-10T04:30:20;100234.78;;;22.97;100.00
54808;BME280;40708;50.364;7.550;2023-06-10T04:32:45;100238.09;;;23.35;100.00
54808;BME280;40708;50.364;7.550;2023-06-10T04:35:12;100242.34;;;23.41;100.00
54808;BME280;40708;50.364;7.550;2023-06-10T04:37:38;100235.38;;;23.84;100.00
54808;BME280;40708;50.364;7.550;2023-06-10T04:40:04;100241.25;;;23.76;100.00
54808;BME280;40708;50.364;7.550;2023-06-10T04:42:30;100245.53;;;23.96;100.00
54808;BME280;40708;50.364;7.550;2023-06-10T04:44:55;100243.03;;;24.38;100.00
54808;BME280;40708;50.364;7.550;2023-06-10T04:47:21;100245.44;;;24.28;100.00
54808;BME280;40708;50.364;7.550;2023-06-10T04:49:46;100246.50;;;24.56;100.00
54808;BME280;40708;50.364;7.550;2023-06-10T04:52:11;100235.53;;;24.43;100.00
54808;BME280;40708;50.364;7.550;2023-06-10T04:54:37;100236.03;;;24.50;100.00
54808;BME280;40708;50.364;7.550;2023-06-10T04:57:03;100229.09;;;24.74;100.00
54808;BME280;40708;50.364;7.550;2023-06-10T04:59:29;100225.59;;;25.02;100.00
54808;BME280;40708;50.364;7.550;2023-06-10T05:01:55;100218.47;;;25.57;100.00
54808;BME280;40708;50.364;7.550;2023-06-10T05:04:20;100219.63;;;25.94;100.00
54808;BME280;40708;50.364;7.550;2023-06-10T05:06:45;100213.38;;;26.06;100.00
54808;BME280;40708;50.364;7.550;2023-06-10T05:09:11;100214.16;;;26.35;100.00
54808;BME280;40708;50.364;7.550;2023-06-10T05:11:36;100212.25;;;26.62;100.00
54808;BME280;40708;50.364;7.550;2023-06-10T05:14:01;100213.72;;;27.18;100.00
54808;BME280;40708;50.364;7.550;2023-06-10T05:16:27;100217.69;;;27.01;100.00
54808;BME280;40708;50.364;7.550;2023-06-10T05:18:53;100220.38;;;27.27;100.00
54808;BME280;40708;50.364;7.550;2023-06-10T05:21:18;100215.28;;;27.22;100.00
54808;BME280;40708;50.364;7.550;2023-06-10T05:23:43;100217.00;;;27.36;100.00
54808;BME280;40708;50.364;7.550;2023-06-10T05:26:08;100211.16;;;27.42;100.00
54808;BME280;40708;50.364;7.550;2023-06-10T05:28:34;100211.81;;;27.82;100.00
54808;BME280;40708;50.364;7.550;2023-06-10T05:30:59;100210.41;;;28.00;100.00
54808;BME280;40708;50.364;7.550;2023-06-10T05:33:24;100203.34;;;28.68;100.00
54808;BME280;40708;50.364;7.550;2023-06-10T05:35:50;100205.94;;;29.05;100.00
54808;BME280;40708;50.364;7.550;2023-06-10T05:38:15;100203.69;;;28.99;100.00
54808;BME280;40708;50.364;7.550;2023-06-10T05:40:41;100206.78;;;28.94;93.85
54808;BME280;40708;50.364;7.550;2023-06-10T05:43:06;100204.59;;;29.43;89.89
54808;BME280;40708;50.364;7.550;2023-06-10T05:45:31;100204.59;;;29.66;81.13
54808;BME280;40708;50.364;7.550;2023-06-10T05:47:56;100198.13;;;29.67;79.25
54808;BME280;40708;50.364;7.550;2023-06-10T05:50:24;100201.84;;;29.66;76.10
54808;BME280;40708;50.364;7.550;2023-06-10T05:52:49;100203.69;;;29.21;73.68
54808;BME280;40708;50.364;7.550;2023-06-10T05:55:17;100201.38;;;29.83;67.08
54808;BME280;40708;50.364;7.550;2023-06-10T05:57:42;100196.63;;;29.63;67.43
54808;BME280;40708;50.364;7.550;2023-06-10T06:00:08;100194.06;;;30.15;66.26
54808;BME280;40708;50.364;7.550;2023-06-10T06:02:34;100197.19;;;30.53;62.80
54808;BME280;40708;50.364;7.550;2023-06-10T06:04:59;100201.56;;;30.34;60.67
54808;BME280;40708;50.364;7.550;2023-06-10T06:07:24;100191.84;;;30.09;59.85
54808;BME280;40708;50.364;7.550;2023-06-10T06:09:50;100197.84;;;30.03;62.92
54808;BME280;40708;50.364;7.550;2023-06-10T06:12:15;100190.66;;;29.91;58.85
54808;BME280;40708;50.364;7.550;2023-06-10T06:14:41;100195.50;;;29.76;60.68
54808;BME280;40708;50.364;7.550;2023-06-10T06:17:06;100195.00;;;29.93;66.39
54808;BME280;40708;50.364;7.550;2023-06-10T06:19:32;100188.91;;;30.33;58.62
54808;BME280;40708;50.364;7.550;2023-06-10T06:21:57;100194.13;;;30.67;61.35
54808;BME280;40708;50.364;7.550;2023-06-10T06:24:22;100199.09;;;30.94;61.54
54808;BME280;40708;50.364;7.550;2023-06-10T06:26:48;100198.56;;;31.00;56.60
54808;BME280;40708;50.364;7.550;2023-06-10T06:29:13;100198.06;;;30.54;52.88
54808;BME280;40708;50.364;7.550;2023-06-10T06:31:38;100208.91;;;30.97;52.63
54808;BME280;40708;50.364;7.550;2023-06-10T06:34:03;100204.41;;;30.96;52.66
54808;BME280;40708;50.364;7.550;2023-06-10T06:36:29;100193.28;;;31.78;51.90
54808;BME280;40708;50.364;7.550;2023-06-10T06:38:55;100187.81;;;31.88;49.44
54808;BME280;40708;50.364;7.550;2023-06-10T06:41:20;100194.84;;;32.21;48.56
54808;BME280;40708;50.364;7.550;2023-06-10T06:43:47;100201.03;;;31.54;51.05
54808;BME280;40708;50.364;7.550;2023-06-10T06:46:12;100199.72;;;31.58;49.70
54808;BME280;40708;50.364;7.550;2023-06-10T06:48:37;100192.94;;;32.02;49.41
54808;BME280;40708;50.364;7.550;2023-06-10T06:51:03;100201.53;;;31.88;49.24
54808;BME280;40708;50.364;7.550;2023-06-10T06:53:28;100210.88;;;31.36;47.73
54808;BME280;40708;50.364;7.550;2023-06-10T06:55:53;100214.59;;;31.35;49.79
54808;BME280;40708;50.364;7.550;2023-06-10T06:58:18;100204.03;;;31.51;50.72
54808;BME280;40708;50.364;7.550;2023-06-10T07:00:44;100211.53;;;31.49;47.74
54808;BME280;40708;50.364;7.550;2023-06-10T07:03:09;100211.81;;;31.46;48.49
54808;BME280;40708;50.364;7.550;2023-06-10T07:05:34;100208.09;;;31.57;49.11
54808;BME280;40708;50.364;7.550;2023-06-10T07:08:00;100219.56;;;31.20;50.12
54808;BME280;40708;50.364;7.550;2023-06-10T07:10:26;100219.22;;;31.55;49.43
54808;BME280;40708;50.364;7.550;2023-06-10T07:12:52;100210.75;;;31.77;48.15
54808;BME280;40708;50.364;7.550;2023-06-10T07:15:17;100207.34;;;31.85;47.31
54808;BME280;40708;50.364;7.550;2023-06-10T07:17:43;100228.25;;;31.25;50.67
54808;BME280;40708;50.364;7.550;2023-06-10T07:20:09;100221.38;;;31.61;49.45
54808;BME280;40708;50.364;7.550;2023-06-10T07:22:34;100222.88;;;32.15;48.53
54808;BME280;40708;50.364;7.550;2023-06-10T07:25:00;100225.34;;;32.37;47.00
54808;BME280;40708;50.364;7.550;2023-06-10T07:27:25;100223.03;;;32.32;48.19
54808;BME280;40708;50.364;7.550;2023-06-10T07:29:51;100226.09;;;31.90;47.59
54808;BME280;40708;50.364;7.550;2023-06-10T07:32:16;100222.03;;;31.84;48.78
54808;BME280;40708;50.364;7.550;2023-06-10T07:34:42;100214.63;;;32.05;48.28
54808;BME280;40708;50.364;7.550;2023-06-10T07:37:07;100220.00;;;32.35;45.70
54808;BME280;40708;50.364;7.550;2023-06-10T07:39:32;100226.63;;;32.04;46.44
54808;BME280;40708;50.364;7.550;2023-06-10T07:41:57;100229.22;;;31.75;49.56
54808;BME280;40708;50.364;7.550;2023-06-10T07:44:23;100227.97;;;31.89;49.98
54808;BME280;40708;50.364;7.550;2023-06-10T07:46:48;100220.47;;;32.60;47.92
54808;BME280;40708;50.364;7.550;2023-06-10T07:49:14;100224.09;;;32.60;48.25
54808;BME280;40708;50.364;7.550;2023-06-10T07:51:39;100222.84;;;32.05;46.34
54808;BME280;40708;50.364;7.550;2023-06-10T07:54:05;100220.72;;;32.28;48.17
54808;BME280;40708;50.364;7.550;2023-06-10T07:56:30;100221.78;;;32.56;47.32
54808;BME280;40708;50.364;7.550;2023-06-10T07:58:55;100228.13;;;32.85;45.19
54808;BME280;40708;50.364;7.550;2023-06-10T08:01:22;100225.97;;;32.60;45.50
54808;BME280;40708;50.364;7.550;2023-06-10T08:03:47;100234.09;;;32.02;47.74
54808;BME280;40708;50.364;7.550;2023-06-10T08:06:12;100231.34;;;32.61;45.20
54808;BME280;40708;50.364;7.550;2023-06-10T08:08:38;100224.50;;;32.94;44.92
54808;BME280;40708;50.364;7.550;2023-06-10T08:11:08;100220.69;;;33.70;42.04
54808;BME280;40708;50.364;7.550;2023-06-10T08:13:34;100224.22;;;32.59;42.89
54808;BME280;40708;50.364;7.550;2023-06-10T08:15:59;100226.72;;;31.93;45.92
54808;BME280;40708;50.364;7.550;2023-06-10T08:18:24;100228.09;;;32.37;46.38
54808;BME280;40708;50.364;7.550;2023-06-10T08:20:49;100232.59;;;32.48;45.96
54808;BME280;40708;50.364;7.550;2023-06-10T08:23:15;100227.53;;;32.43;46.26
54808;BME280;40708;50.364;7.550;2023-06-10T08:25:40;100218.59;;;33.45;43.39
54808;BME280;40708;50.364;7.550;2023-06-10T08:28:05;100215.16;;;33.97;42.38
54808;BME280;40708;50.364;7.550;2023-06-10T08:30:30;100213.16;;;34.27;41.56
54808;BME280;40708;50.364;7.550;2023-06-10T08:32:56;100210.00;;;34.22;42.19
54808;BME280;40708;50.364;7.550;2023-06-10T08:35:21;100215.28;;;32.66;43.95
54808;BME280;40708;50.364;7.550;2023-06-10T08:37:47;100218.56;;;32.98;43.70
54808;BME280;40708;50.364;7.550;2023-06-10T08:40:12;100211.06;;;33.84;41.83
54808;BME280;40708;50.364;7.550;2023-06-10T08:42:45;100198.66;;;34.25;41.41
54808;BME280;40708;50.364;7.550;2023-06-10T08:45:17;100203.84;;;34.28;41.16
54808;BME280;40708;50.364;7.550;2023-06-10T08:47:44;100202.63;;;34.75;40.06
54808;BME280;40708;50.364;7.550;2023-06-10T08:50:10;100206.72;;;34.08;40.75
54808;BME280;40708;50.364;7.550;2023-06-10T08:52:36;100198.78;;;34.94;39.93
54808;BME280;40708;50.364;7.550;2023-06-10T08:55:15;100208.84;;;34.59;39.96
54808;BME280;40708;50.364;7.550;2023-06-10T08:57:45;100214.63;;;33.94;40.78
54808;BME280;40708;50.364;7.550;2023-06-10T09:00:11;100201.13;;;34.63;39.96
54808;BME280;40708;50.364;7.550;2023-06-10T09:02:38;100202.19;;;33.90;40.21
54808;BME280;40708;50.364;7.550;2023-06-10T09:05:03;100204.94;;;34.17;41.09
54808;BME280;40708;50.364;7.550;2023-06-10T09:07:30;100199.72;;;34.59;40.28
54808;BME280;40708;50.364;7.550;2023-06-10T09:09:57;100209.13;;;34.39;39.49
54808;BME280;40708;50.364;7.550;2023-06-10T09:12:24;100207.19;;;32.74;41.19
54808;BME280;40708;50.364;7.550;2023-06-10T09:14:49;100200.94;;;32.72;42.84
54808;BME280;40708;50.364;7.550;2023-06-10T09:17:15;100202.56;;;32.65;41.96
54808;BME280;40708;50.364;7.550;2023-06-10T09:19:41;100197.09;;;33.21;41.79
54808;BME280;40708;50.364;7.550;2023-06-10T09:22:07;100197.09;;;33.31;40.87
54808;BME280;40708;50.364;7.550;2023-06-10T09:24:33;100194.41;;;33.12;41.66
54808;BME280;40708;50.364;7.550;2023-06-10T09:27:06;100186.56;;;33.63;41.21
54808;BME280;40708;50.364;7.550;2023-06-10T09:29:45;100181.13;;;34.08;40.67
54808;BME280;40708;50.364;7.550;2023-06-10T09:32:10;100181.56;;;33.76;40.32
54808;BME280;40708;50.364;7.550;2023-06-10T09:34:36;100183.00;;;34.43;40.12
54808;BME280;40708;50.364;7.550;2023-06-10T09:37:01;100185.59;;;34.09;39.30
54808;BME280;40708;50.364;7.550;2023-06-10T09:39:27;100179.47;;;33.61;40.85
54808;BME280;40708;50.364;7.550;2023-06-10T09:41:52;100185.41;;;33.00;41.39
54808;BME280;40708;50.364;7.550;2023-06-10T09:44:19;100187.19;;;33.47;40.68
54808;BME280;40708;50.364;7.550;2023-06-10T09:46:46;100183.56;;;33.57;39.01
54808;BME280;40708;50.364;7.550;2023-06-10T09:49:12;100171.94;;;33.63;39.80
54808;BME280;40708;50.364;7.550;2023-06-10T09:51:37;100169.88;;;33.37;39.42
54808;BME280;40708;50.364;7.550;2023-06-10T09:54:03;100166.66;;;33.42;37.95
54808;BME280;40708;50.364;7.550;2023-06-10T09:56:35;100169.53;;;33.77;37.86
54808;BME280;40708;50.364;7.550;2023-06-10T09:59:02;100160.75;;;33.37;38.55
54808;BME280;40708;50.364;7.550;2023-06-10T10:01:27;100162.44;;;33.47;38.48
54808;BME280;40708;50.364;7.550;2023-06-10T10:03:53;100174.69;;;33.26;39.44
54808;BME280;40708;50.364;7.550;2023-06-10T10:06:19;100170.66;;;33.20;37.74
54808;BME280;40708;50.364;7.550;2023-06-10T10:08:48;100169.25;;;32.87;38.19
54808;BME280;40708;50.364;7.550;2023-06-10T10:11:16;100171.31;;;32.28;38.54
54808;BME280;40708;50.364;7.550;2023-06-10T10:13:42;100158.72;;;32.73;37.70
54808;BME280;40708;50.364;7.550;2023-06-10T10:16:12;100164.09;;;32.65;37.40
54808;BME280;40708;50.364;7.550;2023-06-10T10:18:43;100163.50;;;32.33;35.45
54808;BME280;40708;50.364;7.550;2023-06-10T10:21:15;100171.06;;;31.81;37.25
54808;BME280;40708;50.364;7.550;2023-06-10T10:24:09;100162.97;;;31.80;37.60
54808;BME280;40708;50.364;7.550;2023-06-10T10:26:38;100173.00;;;32.10;37.01
54808;BME280;40708;50.364;7.550;2023-06-10T10:29:09;100167.72;;;31.68;37.33
54808;BME280;40708;50.364;7.550;2023-06-10T10:31:36;100177.97;;;31.06;37.77
54808;BME280;40708;50.364;7.550;2023-06-10T10:34:05;100191.69;;;30.22;38.69
54808;BME280;40708;50.364;7.550;2023-06-10T10:36:31;100181.72;;;30.52;38.84
54808;BME280;40708;50.364;7.550;2023-06-10T10:38:57;100177.66;;;30.88;38.08
54808;BME280;40708;50.364;7.550;2023-06-10T10:41:24;100184.09;;;30.57;38.42
54808;BME280;40708;50.364;7.550;2023-06-10T10:43:51;100178.16;;;30.73;39.18
54808;BME280;40708;50.364;7.550;2023-06-10T10:46:17;100168.41;;;31.00;37.23
54808;BME280;40708;50.364;7.550;2023-06-10T10:48:43;100172.59;;;30.63;36.78
54808;BME280;40708;50.364;7.550;2023-06-10T10:51:10;100178.88;;;30.54;36.42
54808;BME280;40708;50.364;7.550;2023-06-10T10:53:39;100165.00;;;30.46;36.69
54808;BME280;40708;50.364;7.550;2023-06-10T10:56:13;100177.34;;;30.61;37.75
54808;BME280;40708;50.364;7.550;2023-06-10T10:58:38;100169.19;;;30.18;38.23
54808;BME280;40708;50.364;7.550;2023-06-10T11:01:14;100172.84;;;30.39;38.46
54808;BME280;40708;50.364;7.550;2023-06-10T11:03:46;100172.13;;;30.37;38.37
54808;BME280;40708;50.364;7.550;2023-06-10T11:06:16;100161.22;;;30.47;38.12
54808;BME280;40708;50.364;7.550;2023-06-10T11:11:27;100158.28;;;30.39;38.41
54808;BME280;40708;50.364;7.550;2023-06-10T11:16:28;100148.34;;;30.38;39.42
54808;BME280;40708;50.364;7.550;2023-06-10T11:18:54;100163.78;;;29.96;39.56
54808;BME280;40708;50.364;7.550;2023-06-10T11:21:20;100155.13;;;30.12;38.93
54808;BME280;40708;50.364;7.550;2023-06-10T11:23:45;100158.50;;;30.15;40.19
54808;BME280;40708;50.364;7.550;2023-06-10T11:26:30;100159.31;;;30.38;39.68
54808;BME280;40708;50.364;7.550;2023-06-10T11:31:30;100151.81;;;30.40;39.41
54808;BME280;40708;50.364;7.550;2023-06-10T11:33:57;100153.63;;;30.19;40.27
54808;BME280;40708;50.364;7.550;2023-06-10T11:36:24;100142.34;;;30.12;40.14
54808;BME280;40708;50.364;7.550;2023-06-10T11:38:53;100136.03;;;30.32;40.49
54808;BME280;40708;50.364;7.550;2023-06-10T11:41:20;100133.34;;;30.74;41.10
54808;BME280;40708;50.364;7.550;2023-06-10T11:43:46;100129.19;;;30.58;39.37
54808;BME280;40708;50.364;7.550;2023-06-10T11:46:13;100135.34;;;30.92;39.16
54808;BME280;40708;50.364;7.550;2023-06-10T11:48:39;100136.34;;;30.71;38.98
54808;BME280;40708;50.364;7.550;2023-06-10T11:51:07;100141.97;;;30.17;38.97
54808;BME280;40708;50.364;7.550;2023-06-10T11:53:33;100137.25;;;30.39;39.32
54808;BME280;40708;50.364;7.550;2023-06-10T11:55:58;100135.66;;;30.37;40.32
54808;BME280;40708;50.364;7.550;2023-06-10T11:58:24;100135.81;;;30.56;39.29
54808;BME280;40708;50.364;7.550;2023-06-10T12:00:51;100125.84;;;30.55;39.05
54808;BME280;40708;50.364;7.550;2023-06-10T12:03:18;100134.47;;;30.50;39.75
54808;BME280;40708;50.364;7.550;2023-06-10T12:06:06;100119.34;;;30.35;39.82
54808;BME280;40708;50.364;7.550;2023-06-10T12:08:32;100118.78;;;30.52;40.57
54808;BME280;40708;50.364;7.550;2023-06-10T12:10:58;100115.38;;;30.60;39.11
54808;BME280;40708;50.364;7.550;2023-06-10T12:13:26;100116.31;;;30.70;38.31
54808;BME280;40708;50.364;7.550;2023-06-10T12:15:52;100127.88;;;30.74;37.97
54808;BME280;40708;50.364;7.550;2023-06-10T12:18:21;100116.72;;;30.34;38.50
54808;BME280;40708;50.364;7.550;2023-06-10T12:20:47;100112.81;;;30.47;39.65
54808;BME280;40708;50.364;7.550;2023-06-10T12:23:14;100110.47;;;30.63;40.19
54808;BME280;40708;50.364;7.550;2023-06-10T12:25:49;100116.00;;;30.11;40.83
54808;BME280;40708;50.364;7.550;2023-06-10T12:28:16;100107.31;;;30.27;40.43
54808;BME280;40708;50.364;7.550;2023-06-10T12:30:42;100115.50;;;30.38;41.00
54808;BME280;40708;50.364;7.550;2023-06-10T12:33:16;100117.22;;;30.39;40.24
54808;BME280;40708;50.364;7.550;2023-06-10T12:35:55;100108.78;;;30.62;41.14
54808;BME280;40708;50.364;7.550;2023-06-10T12:38:22;100126.72;;;30.55;39.91
54808;BME280;40708;50.364;7.550;2023-06-10T12:40:48;100104.81;;;30.55;40.01
54808;BME280;40708;50.364;7.550;2023-06-10T12:43:13;100101.31;;;30.74;40.17
54808;BME280;40708;50.364;7.550;2023-06-10T12:45:43;100103.06;;;30.96;40.35
54808;BME280;40708;50.364;7.550;2023-06-10T12:48:21;100106.81;;;31.25;39.57
54808;BME280;40708;50.364;7.550;2023-06-10T12:50:57;100104.72;;;31.17;39.97